Rockwood, Maine
Current Conditions -  °F | °C
As of 8:53 PM on Monday 20 Oct 2014 (Local Time) from KMLT Reporting Station
Overcast Overcast  
Wind Chill: 38°   Ceiling: 9000
Heat Index: 38°   Visibility: 10mi
Dew Point: 30°   Wind: 0mph
Humidity: 73%   Direction: NA
Pressure: 29.95"   Gusts: NA
Location:  45.68°N, 69.74°W
Report Text: KMLT 210053Z AUTO 00000KT 10SM OVC090 03/M01 A2995 RMK AO2 SLP151 T00331011
Loading
Personal Weather Stations






























Interactive Weather Map
Tropical Storm Tracking
New forecast layout! Learn more

10-Day Weather Forecast

Advertisements
Track Severe Weather on mobile